Time;durP1;ratioP1;P1;durP2;ratioP2;P2;SDS_P1;SDS_P2;PMS_P1;PMS_P2;Temp;Humidity;BMP_temperature;BMP_pressure;BME280_temperature;BME280_humidity;BME280_pressure;Samples;Min_cycle;Max_cycle;Signal;HPM_P1;HPM_P2
2022/11/19 00:01:26;;;;;;;14.38;10.27;;;4.40;92.10;;;;;;5103061;28;20374;-55
2022/11/19 00:03:51;;;;;;;15.13;10.35;;;4.40;92.20;;;;;;5104799;28;20040;-57
2022/11/19 00:06:20;;;;;;;15.55;9.98;;;4.40;92.20;;;;;;5109773;28;20021;-58
2022/11/19 00:08:46;;;;;;;15.93;9.70;;;4.40;92.10;;;;;;5098039;28;20493;-57
2022/11/19 00:11:14;;;;;;;14.52;9.93;;;4.40;92.20;;;;;;5101424;28;20020;-57
2022/11/19 00:13:41;;;;;;;13.90;9.70;;;4.40;92.30;;;;;;5115036;28;20027;-57
2022/11/19 00:16:12;;;;;;;12.93;9.65;;;4.40;92.40;;;;;;5114662;28;20489;-57
2022/11/19 00:18:38;;;;;;;13.07;9.20;;;4.40;92.60;;;;;;5098054;28;20036;-59
2022/11/19 00:21:10;;;;;;;13.40;9.43;;;4.40;92.80;;;;;;5105471;28;20484;-58
2022/11/19 00:23:37;;;;;;;12.88;9.25;;;4.50;92.90;;;;;;5106233;28;20450;-58
2022/11/19 00:26:10;;;;;;;14.88;10.18;;;4.50;93.10;;;;;;5109949;28;20019;-57
2022/11/19 00:28:37;;;;;;;16.52;10.93;;;4.50;93.00;;;;;;5109830;28;20390;-57
2022/11/19 00:31:05;;;;;;;17.52;12.20;;;4.50;93.20;;;;;;5108662;28;20024;-56
2022/11/19 00:33:31;;;;;;;18.98;13.18;;;4.50;93.50;;;;;;5103993;28;20492;-57
2022/11/19 00:35:58;;;;;;;21.67;12.18;;;4.50;93.50;;;;;;5112681;28;20028;-57
2022/11/19 00:38:24;;;;;;;17.92;12.10;;;4.60;93.50;;;;;;5110945;28;20092;-57
2022/11/19 00:40:50;;;;;;;19.05;12.20;;;4.60;93.20;;;;;;5111634;28;20466;-57
2022/11/19 00:45:59;;;;;;;20.60;12.77;;;4.50;93.30;;;;;;5114729;28;20525;-57
2022/11/19 00:48:25;;;;;;;21.23;13.48;;;4.50;93.40;;;;;;5110236;28;20059;-57
2022/11/19 00:50:50;;;;;;;21.33;13.20;;;4.40;93.40;;;;;;5104706;28;20059;-57
2022/11/19 00:53:16;;;;;;;24.70;14.93;;;4.40;93.50;;;;;;5100393;28;20529;-57
2022/11/19 00:55:42;;;;;;;22.27;13.80;;;4.40;93.60;;;;;;5112273;28;20024;-56
2022/11/19 00:58:07;;;;;;;21.15;13.35;;;4.30;93.60;;;;;;5106989;28;20034;-58
2022/11/19 01:00:33;;;;;;;17.80;11.98;;;4.30;93.70;;;;;;5109136;28;20035;-57
2022/11/19 01:02:58;;;;;;;22.05;13.23;;;4.30;93.70;;;;;;5111497;28;20406;-56
2022/11/19 01:05:24;;;;;;;23.70;13.93;;;4.20;93.50;;;;;;5111664;28;20023;-57
2022/11/19 01:07:52;;;;;;;18.05;12.52;;;4.20;93.40;;;;;;5095257;28;20432;-56
2022/11/19 01:10:18;;;;;;;19.58;12.32;;;4.10;93.50;;;;;;5094278;28;20020;-56
2022/11/19 01:15:27;;;;;;;23.00;12.07;;;4.10;93.60;;;;;;5097295;28;20394;-57
2022/11/19 01:17:53;;;;;;;19.33;11.27;;;4.10;93.60;;;;;;5098453;28;20024;-57
2022/11/19 01:20:19;;;;;;;20.20;12.32;;;4.10;93.90;;;;;;5109446;28;20023;-57
2022/11/19 01:22:45;;;;;;;18.92;11.48;;;4.10;93.80;;;;;;5103203;28;20107;-57
2022/11/19 01:25:11;;;;;;;18.83;12.38;;;4.10;93.90;;;;;;5082033;28;20028;-58
2022/11/19 01:27:37;;;;;;;17.88;11.38;;;4.10;93.90;;;;;;5106152;28;20030;-57
2022/11/19 01:30:04;;;;;;;18.88;12.15;;;4.10;93.90;;;;;;5103171;28;20028;-56
2022/11/19 01:32:29;;;;;;;17.08;10.80;;;4.10;93.90;;;;;;5098822;28;20063;-57
2022/11/19 01:34:55;;;;;;;19.33;11.45;;;4.10;93.90;;;;;;5099109;28;20394;-57
2022/11/19 01:37:21;;;;;;;15.60;11.13;;;4.10;94.00;;;;;;5112386;28;20425;-57
2022/11/19 01:39:46;;;;;;;17.67;11.63;;;4.10;93.70;;;;;;5093206;28;20486;-58
2022/11/19 01:45:23;;;;;;;13.10;8.68;;;4.10;93.40;;;;;;5092756;28;20038;-57
2022/11/19 01:47:50;;;;;;;14.68;9.10;;;4.10;93.50;;;;;;5095825;28;20024;-58
2022/11/19 01:50:16;;;;;;;12.98;8.70;;;4.10;93.60;;;;;;5105667;28;20493;-57
2022/11/19 01:52:42;;;;;;;13.20;8.10;;;4.00;93.50;;;;;;5103432;28;20028;-57
2022/11/19 01:55:08;;;;;;;10.27;7.15;;;4.00;93.30;;;;;;5106736;28;20073;-56
2022/11/19 01:57:38;;;;;;;8.73;6.82;;;4.00;93.50;;;;;;5100594;28;20061;-57
2022/11/19 02:00:04;;;;;;;9.55;6.60;;;4.00;93.80;;;;;;5106811;28;20097;-57
2022/11/19 02:02:31;;;;;;;10.20;6.38;;;4.00;93.70;;;;;;5111093;28;20063;-61
2022/11/19 02:04:57;;;;;;;10.13;7.18;;;4.00;93.60;;;;;;5106717;28;20020;-61
2022/11/19 02:07:28;;;;;;;10.55;6.40;;;4.10;93.90;;;;;;5107759;28;20118;-61
2022/11/19 02:09:55;;;;;;;9.25;6.38;;;4.10;93.80;;;;;;5097979;28;20077;-61
2022/11/19 02:12:57;;;;;;;8.52;6.45;;;4.10;93.70;;;;;;5099907;28;20031;-61
2022/11/19 02:15:32;;;;;;;7.43;5.30;;;4.10;93.50;;;;;;5104097;28;20442;-61
2022/11/19 02:18:18;;;;;;;7.43;5.50;;;4.10;93.60;;;;;;5096115;28;20048;-61
2022/11/19 02:20:52;;;;;;;7.80;5.38;;;4.20;93.40;;;;;;5092392;28;20098;-63
2022/11/19 02:23:42;;;;;;;8.15;5.15;;;4.20;93.40;;;;;;5097326;28;20463;-61
2022/11/19 02:26:26;;;;;;;8.20;5.57;;;4.20;93.30;;;;;;5095796;28;20466;-60
2022/11/19 02:29:14;;;;;;;8.50;5.45;;;4.20;93.20;;;;;;5092000;28;20484;-62
2022/11/19 02:31:58;;;;;;;9.40;5.47;;;4.20;93.20;;;;;;5103562;28;20022;-61
2022/11/19 02:34:40;;;;;;;6.93;5.13;;;4.20;93.10;;;;;;5115626;28;20035;-62
2022/11/19 02:37:23;;;;;;;;;;;4.30;93.00;;;;;;5105896;28;20016;-61
2022/11/19 02:40:03;;;;;;;7.13;4.78;;;4.20;92.70;;;;;;5115363;28;19946;-61
2022/11/19 02:42:42;;;;;;;7.35;5.05;;;4.30;93.20;;;;;;5114571;28;20035;-59
2022/11/19 02:45:15;;;;;;;7.22;5.45;;;4.30;92.90;;;;;;5097015;28;20024;-59
2022/11/19 02:47:45;;;;;;;7.00;4.90;;;4.30;92.80;;;;;;5098860;28;20383;-60
2022/11/19 02:50:25;;;;;;;7.25;5.20;;;4.20;92.50;;;;;;5106014;28;20032;-61
2022/11/19 02:52:51;;;;;;;8.13;5.57;;;4.20;92.40;;;;;;5108688;28;20026;-61
2022/11/19 02:55:19;;;;;;;6.90;5.43;;;4.20;92.60;;;;;;5114367;28;20028;-61
2022/11/19 02:58:06;;;;;;;7.13;5.35;;;4.20;92.70;;;;;;5111944;28;20036;-61
2022/11/19 03:06:23;;;;;;;7.22;4.75;;;4.20;92.90;;;;;;5107764;28;20394;-61
2022/11/19 03:08:49;;;;;;;6.07;4.35;;;4.20;92.60;;;;;;5109513;28;20031;-61
2022/11/19 03:11:20;;;;;;;7.45;5.25;;;4.20;92.60;;;;;;5113259;28;20020;-62
2022/11/19 03:16:49;;;;;;;7.30;4.85;;;4.20;92.50;;;;;;5107988;28;20564;-60
2022/11/19 03:19:18;;;;;;;7.40;5.43;;;4.20;92.70;;;;;;5110561;28;20032;-61
2022/11/19 03:21:53;;;;;;;7.28;5.15;;;4.30;92.60;;;;;;5115655;28;20099;-61
2022/11/19 03:24:36;;;;;;;7.05;4.57;;;4.20;92.70;;;;;;5115138;28;20015;-64
2022/11/19 03:27:15;;;;;;;7.57;5.70;;;4.20;92.70;;;;;;5111169;28;20026;-59
2022/11/19 03:29:47;;;;;;;6.43;4.90;;;4.20;93.00;;;;;;5111602;28;20024;-61
2022/11/19 03:32:18;;;;;;;7.40;4.82;;;4.20;93.30;;;;;;5103949;28;20468;-61
2022/11/19 03:34:46;;;;;;;7.70;5.20;;;4.20;93.50;;;;;;5099560;28;20412;-61
2022/11/19 03:37:15;;;;;;;6.70;4.85;;;4.20;93.50;;;;;;5112198;28;20055;-61
2022/11/19 03:39:42;;;;;;;7.03;4.90;;;4.30;93.70;;;;;;5105844;28;20030;-61
2022/11/19 03:42:11;;;;;;;7.30;5.38;;;4.30;93.70;;;;;;5111311;28;20028;-61
2022/11/19 03:44:50;;;;;;;7.07;5.05;;;4.30;93.60;;;;;;5108661;28;20062;-60
2022/11/19 03:47:24;;;;;;;8.77;5.50;;;4.40;93.40;;;;;;5108071;28;20027;-61
2022/11/19 03:49:56;;;;;;;6.60;4.70;;;4.40;93.50;;;;;;5100532;28;20455;-61
2022/11/19 03:52:22;;;;;;;7.47;5.22;;;4.40;93.40;;;;;;5098589;28;20065;-61
2022/11/19 03:54:48;;;;;;;7.93;4.85;;;4.40;93.40;;;;;;5103797;28;20496;-61
2022/11/19 03:57:19;;;;;;;8.80;5.53;;;4.40;93.50;;;;;;5109898;28;20505;-61
2022/11/19 03:59:45;;;;;;;6.73;5.30;;;4.50;93.70;;;;;;5097051;28;20375;-61
2022/11/19 04:02:12;;;;;;;8.02;5.20;;;4.40;93.80;;;;;;5111840;28;20095;-61
2022/11/19 04:04:38;;;;;;;7.57;4.82;;;4.50;93.80;;;;;;5104286;28;20035;-61
2022/11/19 04:07:04;;;;;;;7.10;4.65;;;4.50;93.70;;;;;;5110508;28;20020;-61
2022/11/19 04:09:29;;;;;;;6.75;4.80;;;4.50;93.70;;;;;;5109978;28;20370;-62
2022/11/19 04:11:55;;;;;;;5.85;3.92;;;4.60;93.90;;;;;;5114305;28;20024;-61
2022/11/19 04:14:20;;;;;;;6.25;4.82;;;4.60;94.10;;;;;;5114653;28;20024;-61
2022/11/19 04:16:46;;;;;;;6.00;3.72;;;4.60;94.30;;;;;;5101467;28;20474;-61
2022/11/19 04:19:12;;;;;;;5.32;4.10;;;4.70;94.20;;;;;;5106903;28;20023;-59
2022/11/19 04:21:37;;;;;;;4.72;3.60;;;4.70;94.20;;;;;;5111863;28;20032;-61
2022/11/19 04:24:03;;;;;;;4.75;3.67;;;4.70;94.30;;;;;;5113054;28;20031;-61
2022/11/19 04:26:29;;;;;;;4.95;3.53;;;4.80;93.70;;;;;;5102915;28;20027;-61
2022/11/19 04:28:54;;;;;;;5.28;3.28;;;4.80;93.40;;;;;;5105320;28;20040;-62
2022/11/19 04:31:20;;;;;;;4.05;3.13;;;4.90;93.10;;;;;;5102452;28;20091;-62
2022/11/19 04:33:46;;;;;;;5.45;3.47;;;4.90;93.10;;;;;;5112032;28;20050;-61
2022/11/19 04:36:11;;;;;;;4.68;3.13;;;4.90;92.80;;;;;;5112333;28;20028;-62
2022/11/19 04:38:37;;;;;;;4.57;3.28;;;4.90;92.90;;;;;;5108966;28;20024;-62
2022/11/19 04:41:03;;;;;;;3.17;2.88;;;4.90;92.70;;;;;;5096553;28;20024;-61
2022/11/19 04:43:28;;;;;;;3.05;2.53;;;4.90;92.50;;;;;;5111305;28;20035;-61
2022/11/19 04:45:54;;;;;;;2.97;2.67;;;4.90;92.30;;;;;;5104838;28;20034;-61
2022/11/19 04:48:20;;;;;;;2.67;2.47;;;4.90;92.30;;;;;;5105116;28;20539;-61
2022/11/19 04:50:45;;;;;;;3.50;3.10;;;4.90;92.20;;;;;;5108450;28;20027;-61
2022/11/19 04:53:11;;;;;;;4.63;3.30;;;4.90;92.30;;;;;;5097953;28;20027;-61
2022/11/19 04:55:36;;;;;;;3.38;3.00;;;4.90;92.30;;;;;;5106159;28;20030;-61
2022/11/19 04:58:02;;;;;;;3.03;2.70;;;4.90;92.20;;;;;;5109612;28;20104;-61
2022/11/19 05:00:28;;;;;;;3.42;2.90;;;4.90;92.10;;;;;;5105912;28;20020;-62
2022/11/19 05:02:53;;;;;;;2.83;2.60;;;4.90;92.10;;;;;;5106293;28;20051;-61
2022/11/19 05:05:19;;;;;;;3.13;2.60;;;5.00;92.00;;;;;;5083586;28;20054;-60
2022/11/19 05:07:45;;;;;;;3.28;2.97;;;5.00;91.90;;;;;;5110047;28;20028;-61
2022/11/19 05:10:11;;;;;;;3.28;2.97;;;5.00;91.80;;;;;;5108230;28;20425;-61
2022/11/19 05:12:36;;;;;;;2.97;2.67;;;5.00;91.80;;;;;;5112116;28;20068;-62
2022/11/19 05:15:02;;;;;;;3.05;2.55;;;5.00;91.80;;;;;;5110973;28;20554;-61
2022/11/19 05:17:28;;;;;;;3.20;2.72;;;5.00;91.90;;;;;;5109655;28;20023;-61
2022/11/19 05:19:54;;;;;;;3.40;2.80;;;5.10;91.80;;;;;;5108548;28;20059;-62
2022/11/19 05:22:19;;;;;;;3.08;2.58;;;5.10;91.70;;;;;;5102087;28;20077;-61
2022/11/19 05:24:45;;;;;;;3.05;2.60;;;5.10;91.70;;;;;;5109523;28;20058;-61
2022/11/19 05:27:10;;;;;;;2.75;2.40;;;5.10;91.60;;;;;;5113211;28;20028;-62
2022/11/19 05:29:36;;;;;;;3.00;2.58;;;5.10;91.50;;;;;;5098607;28;20401;-61
2022/11/19 05:32:02;;;;;;;3.08;2.60;;;5.20;91.40;;;;;;5111955;28;20034;-61
2022/11/19 05:34:27;;;;;;;3.10;2.70;;;5.20;91.30;;;;;;5088847;28;20038;-62
2022/11/19 05:36:53;;;;;;;2.67;2.47;;;5.20;91.30;;;;;;5112303;28;20160;-62
2022/11/19 05:39:18;;;;;;;2.90;2.40;;;5.20;91.20;;;;;;5111580;28;20027;-61
2022/11/19 05:41:44;;;;;;;2.13;2.03;;;5.20;91.20;;;;;;5106971;28;20102;-61
2022/11/19 05:44:10;;;;;;;2.22;2.05;;;5.20;91.20;;;;;;5105622;28;20039;-61
2022/11/19 05:46:36;;;;;;;2.80;2.50;;;5.30;91.20;;;;;;5104131;28;20035;-62
2022/11/19 05:49:01;;;;;;;2.70;2.28;;;5.20;91.00;;;;;;5101136;28;20023;-62
2022/11/19 05:51:27;;;;;;;2.58;2.15;;;5.30;90.90;;;;;;5110009;28;20024;-62
2022/11/19 05:53:52;;;;;;;2.45;2.15;;;5.30;90.90;;;;;;5104686;28;20020;-62
2022/11/19 05:56:18;;;;;;;2.72;2.40;;;5.30;90.80;;;;;;5103450;28;20028;-61
2022/11/19 05:58:44;;;;;;;2.53;2.22;;;5.30;90.70;;;;;;5101255;28;20038;-61
2022/11/19 06:01:09;;;;;;;2.45;2.25;;;5.40;90.70;;;;;;5112986;28;20080;-61
2022/11/19 06:03:35;;;;;;;2.47;2.28;;;5.40;90.90;;;;;;5096886;28;20052;-61
2022/11/19 06:06:01;;;;;;;2.78;2.35;;;5.40;90.50;;;;;;5112463;28;20056;-62
2022/11/19 06:08:26;;;;;;;2.58;2.33;;;5.40;90.50;;;;;;5099477;28;20073;-61
2022/11/19 06:10:52;;;;;;;2.38;2.17;;;5.40;90.50;;;;;;5097040;28;20092;-62
2022/11/19 06:13:17;;;;;;;2.88;2.50;;;5.40;90.40;;;;;;5095179;28;20479;-62
2022/11/19 06:15:43;;;;;;;3.13;2.70;;;5.40;90.30;;;;;;5101522;28;20514;-62
2022/11/19 06:18:09;;;;;;;3.25;2.70;;;5.40;90.20;;;;;;5099090;28;20088;-61
2022/11/19 06:20:35;;;;;;;3.75;2.60;;;5.40;90.30;;;;;;5101402;28;20409;-62
2022/11/19 06:23:00;;;;;;;4.05;2.97;;;5.50;90.40;;;;;;5101757;28;20024;-62
2022/11/19 06:25:26;;;;;;;3.70;2.80;;;5.50;90.20;;;;;;5091658;28;20517;-62
2022/11/19 06:27:51;;;;;;;2.88;2.55;;;5.50;90.20;;;;;;5104656;28;20032;-62
2022/11/19 06:30:17;;;;;;;3.42;3.05;;;5.50;90.20;;;;;;5102890;28;20019;-62
2022/11/19 06:32:43;;;;;;;4.13;3.00;;;5.50;90.30;;;;;;5104808;28;20122;-62
2022/11/19 06:35:09;;;;;;;4.57;3.00;;;5.50;90.20;;;;;;5100962;28;20023;-61
2022/11/19 06:37:35;;;;;;;3.78;3.13;;;5.60;90.20;;;;;;5095454;28;20024;-62
2022/11/19 06:40:01;;;;;;;2.65;2.45;;;5.60;90.20;;;;;;5100684;28;20034;-61
2022/11/19 06:42:36;;;;;;;3.72;2.75;;;5.60;90.20;;;;;;5096114;28;20467;-61
2022/11/19 06:45:08;;;;;;;3.35;2.90;;;5.60;90.20;;;;;;5094383;28;20040;-61
2022/11/19 06:47:34;;;;;;;3.47;3.00;;;5.60;90.10;;;;;;5094356;28;20077;-61
2022/11/19 06:50:00;;;;;;;3.35;3.00;;;5.60;90.10;;;;;;5097035;28;20023;-61
2022/11/19 06:52:26;;;;;;;3.10;2.80;;;5.60;90.30;;;;;;5096886;28;20465;-61
2022/11/19 06:54:51;;;;;;;4.50;2.92;;;5.70;90.40;;;;;;5106449;28;20032;-61
2022/11/19 06:57:17;;;;;;;3.42;2.55;;;5.70;90.40;;;;;;5105497;28;20103;-61
2022/11/19 06:59:43;;;;;;;3.05;2.67;;;5.70;90.30;;;;;;5103564;28;20042;-60
2022/11/19 07:02:12;;;;;;;3.42;2.80;;;5.70;90.20;;;;;;5094325;28;20023;-61
2022/11/19 07:04:38;;;;;;;3.75;2.90;;;5.80;90.20;;;;;;5092004;28;20483;-61
2022/11/19 07:07:04;;;;;;;3.17;2.70;;;5.80;90.20;;;;;;5092108;28;20133;-59
2022/11/19 07:09:30;;;;;;;2.78;2.45;;;5.90;90.30;;;;;;5093024;28;20781;-60
2022/11/19 07:11:56;;;;;;;2.70;2.50;;;5.90;90.30;;;;;;5099104;28;20092;-59
2022/11/19 07:14:22;;;;;;;3.08;2.78;;;5.90;90.20;;;;;;5101239;28;20028;-61
2022/11/19 07:16:47;;;;;;;2.65;2.45;;;5.90;90.10;;;;;;5106428;28;20023;-60
2022/11/19 07:19:13;;;;;;;3.47;2.45;;;6.00;90.10;;;;;;5095072;28;20035;-61
2022/11/19 07:21:38;;;;;;;2.70;2.22;;;6.00;90.10;;;;;;5100963;28;20024;-61
2022/11/19 07:24:07;;;;;;;4.00;2.83;;;6.10;90.10;;;;;;5102389;27;23029;-61
2022/11/19 07:26:34;;;;;;;2.92;2.50;;;6.10;90.10;;;;;;5100580;28;20073;-61
2022/11/19 07:29:02;;;;;;;2.13;1.90;;;6.20;90.10;;;;;;5101686;28;20019;-61
2022/11/19 07:31:28;;;;;;;2.75;2.30;;;6.20;90.10;;;;;;5098232;28;20024;-60
2022/11/19 07:33:54;;;;;;;2.45;2.10;;;6.30;90.10;;;;;;5101086;28;20449;-61
2022/11/19 07:36:19;;;;;;;2.30;2.15;;;6.40;90.20;;;;;;5100894;28;20047;-60
2022/11/19 07:38:46;;;;;;;2.50;2.00;;;6.40;90.20;;;;;;5105663;28;20034;-61
2022/11/19 07:43:56;;;;;;;2.53;2.33;;;6.60;90.00;;;;;;5095731;28;20424;-60
2022/11/19 07:46:22;;;;;;;2.38;2.17;;;6.60;89.80;;;;;;5092978;27;20028;-61
2022/11/19 07:48:55;;;;;;;2.55;2.33;;;6.70;90.20;;;;;;5096368;28;20016;-59
2022/11/19 07:51:21;;;;;;;3.22;2.63;;;6.70;89.50;;;;;;5098388;28;20036;-61
2022/11/19 07:53:48;;;;;;;3.00;2.65;;;6.80;89.20;;;;;;5093401;27;20543;-60
2022/11/19 07:56:14;;;;;;;3.03;2.40;;;6.80;89.10;;;;;;5096772;28;20040;-58
2022/11/19 07:58:40;;;;;;;2.88;2.60;;;6.80;89.70;;;;;;5097918;28;20115;-61
2022/11/19 08:01:10;;;;;;;2.97;2.58;;;6.80;88.90;;;;;;5100763;28;20133;-61
2022/11/19 08:03:36;;;;;;;3.20;2.80;;;6.80;88.80;;;;;;5100372;27;20036;-60
2022/11/19 08:06:03;;;;;;;2.95;2.53;;;6.80;88.90;;;;;;5098066;28;20039;-61
2022/11/19 08:08:30;;;;;;;2.92;2.60;;;6.80;89.10;;;;;;5091447;28;20447;-61
2022/11/19 08:10:56;;;;;;;3.70;2.95;;;6.90;89.00;;;;;;5095455;28;20024;-61
2022/11/19 08:13:21;;;;;;;3.40;3.08;;;6.80;88.80;;;;;;5092362;28;20039;-59
2022/11/19 08:15:47;;;;;;;4.40;2.90;;;6.90;88.90;;;;;;5089306;28;20035;-59
2022/11/19 08:18:14;;;;;;;3.83;3.10;;;6.80;88.70;;;;;;5093428;27;20546;-61
2022/11/19 08:20:44;;;;;;;3.58;2.90;;;6.90;88.60;;;;;;5094282;28;20023;-61
2022/11/19 08:23:10;;;;;;;4.85;3.55;;;6.80;88.70;;;;;;5098610;28;20044;-59
2022/11/19 08:25:36;;;;;;;4.05;3.03;;;6.80;88.90;;;;;;5086362;28;20023;-61
2022/11/19 08:28:02;;;;;;;3.70;3.15;;;6.80;88.80;;;;;;5093293;28;20019;-61
2022/11/19 08:30:29;;;;;;;3.30;2.90;;;6.80;88.90;;;;;;5094163;28;20108;-61
2022/11/19 08:32:55;;;;;;;4.85;3.75;;;6.80;89.00;;;;;;5090889;28;20127;-61
2022/11/19 08:35:21;;;;;;;3.72;3.03;;;6.80;89.00;;;;;;5091719;27;20107;-61
2022/11/19 08:37:47;;;;;;;4.22;3.30;;;6.80;89.20;;;;;;5092308;28;20525;-60
2022/11/19 08:40:13;;;;;;;4.05;3.33;;;6.80;89.10;;;;;;5093600;28;20146;-58
2022/11/19 08:45:25;;;;;;;3.50;3.15;;;6.80;88.90;;;;;;5095822;28;20042;-60
2022/11/19 08:47:51;;;;;;;4.43;3.00;;;6.80;89.00;;;;;;5092054;28;20032;-60
2022/11/19 08:50:17;;;;;;;3.75;3.35;;;6.70;89.10;;;;;;5097452;28;20076;-61
2022/11/19 08:52:42;;;;;;;4.50;3.40;;;6.70;89.20;;;;;;5103480;28;20069;-60
2022/11/19 08:55:08;;;;;;;3.55;3.10;;;6.70;89.30;;;;;;5103603;28;20046;-59
2022/11/19 08:57:34;;;;;;;4.40;3.75;;;6.70;89.40;;;;;;5100581;28;20059;-60
2022/11/19 09:00:00;;;;;;;4.15;3.50;;;6.70;89.60;;;;;;5102488;27;20062;-58
2022/11/19 09:02:25;;;;;;;4.53;3.78;;;6.70;89.30;;;;;;5095335;27;20498;-60
2022/11/19 09:04:51;;;;;;;4.50;3.70;;;6.70;89.00;;;;;;5097420;27;20026;-61
2022/11/19 09:07:17;;;;;;;4.10;3.40;;;6.70;88.70;;;;;;5092939;28;20027;-60
2022/11/19 09:09:42;;;;;;;3.95;3.53;;;6.60;88.50;;;;;;5091897;28;20025;-59
2022/11/19 09:12:08;;;;;;;4.88;4.00;;;6.60;88.50;;;;;;5091395;27;20035;-58
2022/11/19 09:14:34;;;;;;;5.65;4.43;;;6.50;88.60;;;;;;5088487;28;20047;-59
2022/11/19 09:17:00;;;;;;;5.90;4.35;;;6.50;88.70;;;;;;5099438;27;20414;-60
2022/11/19 09:19:25;;;;;;;9.13;6.57;;;6.50;88.80;;;;;;5089490;28;20906;-62
2022/11/19 09:21:51;;;;;;;11.05;8.50;;;6.40;88.90;;;;;;5090734;27;20036;-62
2022/11/19 09:24:17;;;;;;;7.82;6.53;;;6.40;89.10;;;;;;5093477;28;20064;-60
2022/11/19 09:26:43;;;;;;;8.00;6.55;;;6.40;88.90;;;;;;5092352;27;20028;-58
2022/11/19 09:29:09;;;;;;;12.68;10.20;;;6.40;89.50;;;;;;5091787;28;20050;-62
2022/11/19 09:31:34;;;;;;;13.05;10.07;;;6.30;88.70;;;;;;5092609;28;20023;-60
2022/11/19 09:34:00;;;;;;;13.35;9.05;;;6.30;88.70;;;;;;5091130;27;20036;-61
2022/11/19 09:36:26;;;;;;;10.40;7.95;;;6.20;88.90;;;;;;5093062;27;20027;-60
2022/11/19 09:38:56;;;;;;;11.43;8.88;;;6.20;89.00;;;;;;5092661;27;20038;-61
2022/11/19 09:41:24;;;;;;;10.95;8.63;;;6.20;89.00;;;;;;5077640;28;20490;-60
2022/11/19 09:44:08;;;;;;;10.32;7.55;;;6.20;89.00;;;;;;5094865;27;20435;-60
2022/11/19 09:46:43;;;;;;;7.85;6.55;;;6.10;88.90;;;;;;5093626;27;20024;-61
2022/11/19 09:49:15;;;;;;;9.95;6.88;;;6.10;89.00;;;;;;5090613;28;20486;-61
2022/11/19 09:51:50;;;;;;;7.32;6.18;;;6.10;88.80;;;;;;5092962;28;20072;-61
2022/11/19 09:54:18;;;;;;;8.45;6.90;;;6.00;88.40;;;;;;5092691;27;20032;-62
2022/11/19 09:56:46;;;;;;;7.15;6.13;;;6.00;88.20;;;;;;5093754;28;20035;-61
2022/11/19 09:59:35;;;;;;;7.82;6.25;;;5.90;88.10;;;;;;5087002;28;20040;-59
2022/11/19 10:02:02;;;;;;;8.10;6.03;;;5.80;87.70;;;;;;5091661;28;20031;-60
2022/11/19 10:04:32;;;;;;;6.85;4.95;;;5.80;87.90;;;;;;5091642;28;20137;-59
2022/11/19 10:07:06;;;;;;;7.18;5.40;;;5.70;87.90;;;;;;5094221;28;20122;-61
2022/11/19 10:09:53;;;;;;;7.65;5.70;;;5.70;88.20;;;;;;5093509;28;20493;-60
2022/11/19 10:13:10;;;;;;;6.60;5.43;;;5.70;88.30;;;;;;5096292;28;20051;-61
2022/11/19 10:15:48;;;;;;;7.60;5.90;;;5.70;88.00;;;;;;5090637;28;20896;-61
2022/11/19 10:18:38;;;;;;;6.78;5.15;;;5.70;88.30;;;;;;5089574;28;20115;-61
2022/11/19 10:21:30;;;;;;;6.10;4.80;;;5.60;88.10;;;;;;5093937;28;20032;-61
2022/11/19 10:24:20;;;;;;;5.57;4.88;;;5.60;88.30;;;;;;5094379;28;20029;-61
2022/11/19 10:26:58;;;;;;;7.65;4.97;;;5.60;88.20;;;;;;5045658;28;20070;-59
2022/11/19 10:29:33;;;;;;;6.70;5.00;;;5.60;88.10;;;;;;5097917;28;20119;-60
2022/11/19 10:32:24;;;;;;;5.88;4.53;;;5.60;88.30;;;;;;5099790;28;20028;-61
2022/11/19 10:34:52;;;;;;;6.25;4.25;;;5.60;88.20;;;;;;5102306;28;20027;-60
2022/11/19 10:37:21;;;;;;;6.10;4.95;;;5.60;88.60;;;;;;5100551;28;20374;-61
2022/11/19 10:40:13;;;;;;;5.75;4.88;;;5.70;88.60;;;;;;5094912;28;20546;-61
2022/11/19 10:42:45;;;;;;;5.38;4.68;;;5.70;88.40;;;;;;5093902;28;20050;-60
2022/11/19 10:45:26;;;;;;;4.93;4.43;;;5.80;88.20;;;;;;5095421;28;20553;-61
2022/11/19 10:48:39;;;;;;;5.97;5.00;;;5.80;87.90;;;;;;5099444;28;20106;-60
2022/11/19 10:51:18;;;;;;;6.85;5.47;;;5.80;87.40;;;;;;5004142;28;20034;-59
2022/11/19 10:53:44;;;;;;;5.43;4.68;;;5.80;87.50;;;;;;5003376;28;20042;-61
2022/11/19 10:56:30;;;;;;;6.85;5.00;;;5.80;87.70;;;;;;5054024;28;20439;-60
2022/11/19 10:59:00;;;;;;;5.25;4.57;;;5.90;87.50;;;;;;5084494;27;20120;-62
2022/11/19 11:01:28;;;;;;;5.70;4.82;;;5.90;87.50;;;;;;5097908;27;20050;-60
2022/11/19 11:04:02;;;;;;;7.15;5.22;;;5.90;87.10;;;;;;5091384;27;20130;-61
2022/11/19 11:06:52;;;;;;;8.48;5.75;;;5.90;86.50;;;;;;5094959;28;20028;-61
2022/11/19 11:09:27;;;;;;;7.43;5.20;;;5.90;86.30;;;;;;5097375;27;20031;-60
2022/11/19 11:14:53;;;;;;;8.35;5.10;;;5.90;86.40;;;;;;5095865;27;20038;-61
2022/11/19 11:17:29;;;;;;;6.72;4.97;;;5.90;86.30;;;;;;5092094;28;20051;-61
2022/11/19 11:20:19;;;;;;;6.85;5.55;;;5.80;86.20;;;;;;5094461;27;20106;-60
2022/11/19 11:22:47;;;;;;;6.70;5.60;;;5.90;86.20;;;;;;5094265;27;20024;-61
2022/11/19 11:25:23;;;;;;;6.18;5.05;;;5.80;85.80;;;;;;5093021;27;20556;-61
2022/11/19 11:28:07;;;;;;;5.88;4.70;;;5.80;85.50;;;;;;5091217;27;20042;-61
2022/11/19 11:30:33;;;;;;;5.43;4.57;;;5.80;85.20;;;;;;5092479;27;20496;-60
2022/11/19 11:33:24;;;;;;;4.95;4.13;;;5.80;85.30;;;;;;5077189;28;20028;-59
2022/11/19 11:35:51;;;;;;;5.68;4.25;;;5.80;85.00;;;;;;5086174;27;20034;-60
2022/11/19 11:38:21;;;;;;;5.10;3.97;;;5.80;85.10;;;;;;5093463;27;20213;-60
2022/11/19 11:41:03;;;;;;;4.60;4.10;;;5.80;85.00;;;;;;5074734;28;20036;-61
2022/11/19 11:43:31;;;;;;;4.90;4.20;;;5.80;84.80;;;;;;5094110;27;20024;-59
2022/11/19 11:46:00;;;;;;;5.00;4.28;;;5.80;84.20;;;;;;5096236;27;20031;-59
2022/11/19 11:48:35;;;;;;;5.18;4.18;;;5.70;84.40;;;;;;5092836;27;20057;-60
2022/11/19 11:51:01;;;;;;;4.43;3.83;;;5.70;84.60;;;;;;5092666;27;20057;-60
2022/11/19 11:53:29;;;;;;;5.82;4.70;;;5.70;84.60;;;;;;5095783;28;20036;-59
2022/11/19 11:56:00;;;;;;;4.93;4.03;;;5.70;84.40;;;;;;5093525;28;20028;-58
2022/11/19 11:58:30;;;;;;;4.95;4.50;;;5.70;84.30;;;;;;5090342;28;20031;-59
2022/11/19 12:01:19;;;;;;;5.00;4.47;;;5.70;84.30;;;;;;5088906;27;20510;-59
2022/11/19 12:03:56;;;;;;;5.65;5.03;;;5.70;84.10;;;;;;5095816;27;20046;-59
2022/11/19 12:06:27;;;;;;;5.25;4.50;;;5.80;83.90;;;;;;5090939;27;20423;-59
2022/11/19 12:09:04;;;;;;;5.68;4.35;;;5.70;84.00;;;;;;5086743;28;20395;-59
2022/11/19 12:11:53;;;;;;;5.15;4.40;;;5.80;83.90;;;;;;5086853;28;20016;-59
2022/11/19 12:14:34;;;;;;;4.75;4.20;;;5.80;84.10;;;;;;5088853;28;20036;-60
2022/11/19 12:17:12;;;;;;;;;;;5.80;83.80;;;;;;5094113;28;20023;-59
2022/11/19 12:19:41;;;;;;;4.55;4.05;;;5.80;82.70;;;;;;5090092;28;20298;-59
2022/11/19 12:22:16;;;;;;;4.78;4.25;;;5.80;83.50;;;;;;5088896;28;20044;-59
2022/11/19 12:25:03;;;;;;;4.88;4.10;;;5.80;83.30;;;;;;5094419;28;20032;-59
2022/11/19 12:27:45;;;;;;;4.50;4.05;;;5.80;83.10;;;;;;5087350;27;20070;-58
2022/11/19 12:30:19;;;;;;;5.40;4.22;;;5.70;82.90;;;;;;5089541;28;20111;-59
2022/11/19 12:32:47;;;;;;;6.63;4.57;;;5.70;83.20;;;;;;5091525;28;20082;-58
2022/11/19 12:35:21;;;;;;;4.85;4.00;;;5.70;82.90;;;;;;5092085;28;20032;-60
2022/11/19 12:38:00;;;;;;;5.70;4.15;;;5.80;82.90;;;;;;5085064;28;20057;-58
2022/11/19 12:40:28;;;;;;;5.28;4.00;;;5.80;82.80;;;;;;5086113;27;20028;-57
2022/11/19 12:43:32;;;;;;;4.95;4.07;;;5.80;82.70;;;;;;5088694;28;20024;-58
2022/11/19 12:46:03;;;;;;;4.40;3.90;;;5.70;82.60;;;;;;5019528;28;20548;-60
2022/11/19 12:48:36;;;;;;;5.63;4.20;;;5.70;82.80;;;;;;5095458;28;20024;-58
2022/11/19 12:51:27;;;;;;;5.07;4.10;;;5.80;82.60;;;;;;5092018;28;20032;-60
2022/11/19 12:54:18;;;;;;;5.60;4.30;;;5.80;81.80;;;;;;5087718;27;20062;-59
2022/11/19 12:57:11;;;;;;;5.03;4.53;;;5.70;81.90;;;;;;5094690;28;20427;-59
2022/11/19 12:59:55;;;;;;;5.03;3.90;;;5.70;81.80;;;;;;5090699;28;20032;-58
2022/11/19 13:02:33;;;;;;;5.00;4.15;;;5.70;81.60;;;;;;5090726;28;20074;-59
2022/11/19 13:05:21;;;;;;;5.05;3.95;;;5.70;81.40;;;;;;5082256;28;20054;-57
2022/11/19 13:08:07;;;;;;;5.45;4.10;;;5.70;81.50;;;;;;5087278;28;21024;-58
2022/11/19 13:10:38;;;;;;;5.40;4.30;;;5.70;81.60;;;;;;5087574;28;20027;-59
2022/11/19 13:13:07;;;;;;;5.15;4.22;;;5.70;81.70;;;;;;5089162;28;20035;-59
2022/11/19 13:15:38;;;;;;;5.28;4.40;;;5.70;81.40;;;;;;5087347;27;20035;-59
2022/11/19 13:18:09;;;;;;;5.53;4.60;;;5.60;81.10;;;;;;5094401;27;20040;-60
2022/11/19 13:20:49;;;;;;;5.65;4.75;;;5.60;81.20;;;;;;5091351;27;20024;-60
2022/11/19 13:23:31;;;;;;;5.18;4.45;;;5.60;81.20;;;;;;5086743;28;20114;-58
2022/11/19 13:26:05;;;;;;;5.15;4.25;;;5.50;81.20;;;;;;5085562;27;20035;-61
2022/11/19 13:28:58;;;;;;;4.63;4.15;;;5.50;81.00;;;;;;5087084;27;20031;-60
2022/11/19 13:31:55;;;;;;;5.50;4.88;;;5.50;80.70;;;;;;5088468;28;20056;-59
2022/11/19 13:34:48;;;;;;;4.40;4.00;;;5.40;80.50;;;;;;5089866;28;20073;-60
2022/11/19 13:37:21;;;;;;;4.70;4.20;;;5.40;80.70;;;;;;5088859;28;20158;-60
2022/11/19 13:40:21;;;;;;;5.55;4.32;;;5.40;80.90;;;;;;5088050;28;20536;-60